PAED METAR and TAF weather

Enter ICAO airport designator
Station Type Date Time Source
PAED METAR 2021/09/23 22:56 UTC NOAA

PAED 232256Z 02014G27KT 10SM SCT035 BKN065 07/M02 A2921 RMK AO2A PK WND 01028/46 PRESFR SLP888 T00671017 $


Station Type Date Time Source
PAED Decoded METAR 2021/09/23 22:56 UTC NOAA

Anchorage, Elmendorf Air Force Base, AK, United States (PAED) 61-15-11N 149-47-38W 59M
Sep 23, 2021 - 06:56 PM EDT / 2021.09.23 2256 UTC
Wind: from the NNE (020 degrees) at 16 MPH (14 KT) gusting to 31 MPH (27 KT):0
Visibility: 10 mile(s):0
Sky conditions: mostly cloudy
Temperature: 44.1 F (6.7 C)
Dew Point: 28.9 F (-1.7 C)
Relative Humidity: 54%
Pressure (altimeter): 29.21 in. Hg (989 hPa)
Pressure tendency: falling rapidly
ob: PAED 232256Z 02014G27KT 10SM SCT035 BKN065 07/M02 A2921 RMK AO2A PK WND 01028/46 PRESFR SLP888 T00671017
cycle: 23

Station Type Date Time Source
PAED TAF 2021/09/23 23:06 UTC NOAA

TAF
AMD PAED 232300Z 2323/2500 35012G22KT 9999 VCSH FEW020 BKN035 OVC050 620358 520205 QNH2915INS
BECMG 2401/2402 35012G18KT 8000 -RASN BR SCT007 OVC015 620208 520505 QNH2904INS
BECMG 2407/2408 33015G22KT 3200 -SN BR OVC005 640059 520004 QNH2906INS
BECMG 2411/2412 35010G15KT 4000 -SN BR BKN005 BKN010 OVC030 640059 QNH2910INS
BECMG 2418/2419 35009KT 6000 -SN BR BKN007 OVC010 640077 QNH2920INS TX07/2323Z TN00/2409Z

Example: see airport list